createdAt,value
2019-03-17T00:01:30.894Z,5.50
2019-03-17T00:04:01.783Z,5.40
2019-03-17T00:06:33.500Z,5.50
2019-03-17T00:09:05.274Z,5.50
2019-03-17T00:11:35.857Z,5.40
2019-03-17T00:14:07.062Z,5.50
2019-03-17T00:16:38.774Z,5.50
2019-03-17T00:19:10.253Z,5.50
2019-03-17T00:21:40.730Z,5.50
2019-03-17T00:24:11.364Z,5.50
2019-03-17T00:26:42.872Z,5.40
2019-03-17T00:29:13.340Z,5.40
2019-03-17T00:31:43.820Z,5.40
2019-03-17T00:34:15.107Z,5.40
2019-03-17T00:36:46.674Z,5.40
2019-03-17T00:39:17.549Z,5.40
2019-03-17T00:41:47.871Z,5.40
2019-03-17T00:44:18.394Z,5.30
2019-03-17T00:46:48.993Z,5.20
2019-03-17T00:49:19.413Z,5.20
2019-03-17T00:51:49.802Z,5.20
2019-03-17T00:54:20.181Z,5.20
2019-03-17T00:56:50.556Z,5.10
2019-03-17T00:59:21.392Z,5.10
2019-03-17T01:01:52.094Z,5.00
2019-03-17T01:04:22.987Z,5.00
2019-03-17T01:06:53.440Z,5.00
2019-03-17T01:09:23.806Z,4.90
2019-03-17T01:11:54.662Z,4.80
2019-03-17T01:14:25.088Z,4.80
2019-03-17T01:16:55.528Z,4.80
2019-03-17T01:19:26.302Z,4.70
2019-03-17T01:21:56.842Z,4.70
2019-03-17T01:24:27.326Z,4.70
2019-03-17T01:26:57.950Z,4.70
2019-03-17T01:29:28.404Z,4.60
2019-03-17T01:31:58.843Z,4.60
2019-03-17T01:34:29.314Z,4.60
2019-03-17T01:36:59.943Z,4.60
2019-03-17T01:39:30.429Z,4.60
2019-03-17T01:42:01.142Z,4.60
2019-03-17T01:44:31.544Z,4.60
2019-03-17T01:47:02.093Z,4.50
2019-03-17T01:49:32.520Z,4.50
2019-03-17T01:52:02.974Z,4.40
2019-03-17T01:54:33.651Z,4.40
2019-03-17T01:57:04.064Z,4.40
2019-03-17T01:59:34.826Z,4.40
2019-03-17T02:02:06.781Z,4.40
2019-03-17T02:04:37.229Z,4.40
2019-03-17T02:07:08.157Z,4.40
2019-03-17T02:09:39.838Z,4.30
2019-03-17T02:12:10.644Z,4.30
2019-03-17T02:14:41.190Z,4.40
2019-03-17T02:17:11.593Z,4.40
2019-03-17T02:19:42.028Z,4.40
2019-03-17T02:22:12.518Z,4.30
2019-03-17T02:24:42.999Z,4.40
2019-03-17T02:27:13.398Z,4.40
2019-03-17T02:29:44.042Z,4.40
2019-03-17T02:32:14.670Z,4.50
2019-03-17T02:34:45.335Z,4.50
2019-03-17T02:37:17.584Z,4.50
2019-03-17T02:39:48.082Z,4.50
2019-03-17T02:42:19.702Z,4.50
2019-03-17T02:44:50.166Z,4.50
2019-03-17T02:47:20.564Z,4.50
2019-03-17T02:49:51.996Z,4.60
2019-03-17T02:52:22.515Z,4.60
2019-03-17T02:54:53.389Z,4.60
2019-03-17T02:57:24.047Z,4.60
2019-03-17T02:59:54.904Z,4.60
2019-03-17T03:02:25.667Z,4.60
2019-03-17T03:04:56.633Z,4.60
2019-03-17T03:07:28.171Z,4.70
2019-03-17T03:09:58.677Z,4.70
2019-03-17T03:12:29.899Z,4.70
2019-03-17T03:15:00.561Z,4.80
2019-03-17T03:17:31.156Z,4.80
2019-03-17T03:20:01.919Z,4.90
2019-03-17T03:22:33.098Z,5.00
2019-03-17T03:25:03.524Z,5.00
2019-03-17T03:27:33.951Z,5.00
2019-03-17T03:30:06.319Z,5.10
2019-03-17T03:32:36.792Z,5.10
2019-03-17T03:35:07.723Z,5.20
2019-03-17T03:37:38.579Z,5.20
2019-03-17T03:40:10.590Z,5.20
2019-03-17T03:42:41.115Z,5.20
2019-03-17T03:45:12.469Z,5.20
2019-03-17T03:47:43.110Z,5.20
2019-03-17T03:50:14.623Z,5.20
2019-03-17T03:52:45.131Z,5.30
2019-03-17T03:55:15.658Z,5.20
2019-03-17T03:57:46.221Z,5.30
2019-03-17T04:00:16.663Z,5.30
2019-03-17T04:02:47.078Z,5.30
2019-03-17T04:05:17.612Z,5.30
2019-03-17T04:07:47.987Z,5.30
2019-03-17T04:10:18.412Z,5.30
2019-03-17T04:12:48.838Z,5.30
2019-03-17T04:15:19.237Z,5.30
2019-03-17T04:17:49.674Z,5.30
2019-03-17T04:20:20.152Z,5.30
2019-03-17T04:22:50.793Z,5.30
2019-03-17T04:25:21.296Z,5.30
2019-03-17T04:27:51.864Z,5.30
2019-03-17T04:30:22.482Z,5.40
2019-03-17T04:32:52.879Z,5.40
2019-03-17T04:35:23.787Z,5.50
2019-03-17T04:37:54.156Z,5.60
2019-03-17T04:40:24.678Z,5.60
2019-03-17T04:42:55.553Z,5.70
2019-03-17T04:45:26.868Z,5.80
2019-03-17T04:47:57.260Z,5.80
2019-03-17T04:50:27.810Z,5.90
2019-03-17T04:52:58.373Z,6.00
2019-03-17T04:55:30.142Z,6.10
2019-03-17T04:58:00.669Z,6.10
2019-03-17T05:00:31.395Z,6.20
2019-03-17T05:03:02.124Z,6.30
2019-03-17T05:05:32.801Z,6.40
2019-03-17T05:08:03.323Z,6.50
2019-03-17T05:10:33.783Z,6.50
2019-03-17T05:13:04.351Z,6.60
2019-03-17T05:15:35.152Z,6.60
2019-03-17T05:18:05.887Z,6.70
2019-03-17T05:20:37.884Z,6.70
2019-03-17T05:23:08.644Z,6.70
2019-03-17T05:25:39.861Z,6.80
2019-03-17T05:28:10.268Z,6.80
2019-03-17T05:30:41.150Z,6.80
2019-03-17T05:33:11.619Z,6.80
2019-03-17T05:35:42.127Z,6.90
2019-03-17T05:38:12.823Z,6.90
2019-03-17T05:40:43.233Z,7.00
2019-03-17T05:43:13.629Z,7.00
2019-03-17T05:45:44.032Z,7.00
2019-03-17T05:48:14.497Z,7.00
2019-03-17T05:50:44.914Z,7.00
2019-03-17T05:53:15.293Z,7.10
2019-03-17T05:55:45.960Z,7.00
2019-03-17T05:58:16.325Z,7.10
2019-03-17T06:00:46.786Z,7.10
2019-03-17T06:03:17.284Z,7.10
2019-03-17T06:05:47.885Z,7.10
2019-03-17T06:08:18.487Z,7.10
2019-03-17T06:10:49.059Z,7.10
2019-03-17T06:13:19.466Z,7.10
2019-03-17T06:15:50.209Z,7.20
2019-03-17T06:18:21.425Z,7.20
2019-03-17T06:20:53.583Z,7.20
2019-03-17T06:23:24.100Z,7.20
2019-03-17T06:25:54.583Z,7.20
2019-03-17T06:28:25.135Z,7.30
2019-03-17T06:30:55.605Z,7.30
2019-03-17T06:33:26.415Z,7.30
2019-03-17T06:35:57.173Z,7.30
2019-03-17T06:38:27.987Z,7.40
2019-03-17T06:40:58.445Z,7.40
2019-03-17T06:43:28.839Z,7.40
2019-03-17T06:45:59.275Z,7.40
2019-03-17T06:48:29.903Z,7.50
2019-03-17T06:51:00.545Z,7.50
2019-03-17T06:53:33.392Z,7.50
2019-03-17T06:56:04.139Z,7.60
2019-03-17T06:58:34.583Z,7.60
2019-03-17T07:01:05.215Z,7.60
2019-03-17T07:03:35.859Z,7.70
2019-03-17T07:06:06.804Z,7.70
2019-03-17T07:08:37.307Z,7.80
2019-03-17T07:11:10.782Z,7.80
2019-03-17T07:13:40.017Z,7.90
2019-03-17T07:16:10.520Z,8.20
2019-03-17T07:18:41.089Z,8.20
2019-03-17T07:21:11.836Z,8.30
2019-03-17T07:23:42.402Z,8.40
2019-03-17T07:26:13.474Z,8.50
2019-03-17T07:28:43.949Z,8.60
2019-03-17T07:31:14.475Z,8.60
2019-03-17T07:33:44.906Z,8.50
2019-03-17T07:36:15.332Z,8.70
2019-03-17T07:38:45.827Z,8.80
2019-03-17T07:41:16.943Z,8.70
2019-03-17T07:43:47.335Z,8.80
2019-03-17T07:46:18.101Z,8.90
2019-03-17T07:48:48.943Z,8.80
2019-03-17T07:51:19.849Z,8.80
2019-03-17T07:53:50.302Z,8.80
2019-03-17T07:56:20.967Z,8.90
2019-03-17T07:58:51.556Z,9.00
2019-03-17T08:01:22.361Z,9.20
2019-03-17T08:03:52.781Z,9.30
2019-03-17T08:06:23.240Z,9.30
2019-03-17T08:08:53.716Z,9.40
2019-03-17T08:11:24.139Z,9.50
2019-03-17T08:13:54.740Z,9.60
2019-03-17T08:16:25.283Z,9.90
2019-03-17T08:18:55.729Z,9.80
2019-03-17T08:21:26.175Z,9.70
2019-03-17T08:23:56.807Z,9.70
2019-03-17T08:26:27.213Z,9.60
2019-03-17T08:28:57.719Z,9.60
2019-03-17T08:31:28.283Z,9.60
2019-03-17T08:33:59.489Z,9.80
2019-03-17T08:36:29.947Z,9.90
2019-03-17T08:39:00.393Z,10.00
2019-03-17T08:41:31.349Z,10.30
2019-03-17T08:44:01.863Z,10.30
2019-03-17T08:46:32.439Z,10.50
2019-03-17T08:49:02.943Z,10.60
2019-03-17T08:51:33.471Z,10.80
2019-03-17T08:54:04.371Z,10.90
2019-03-17T08:56:34.973Z,11.10
2019-03-17T08:59:05.681Z,11.00
2019-03-17T09:01:36.686Z,11.00
2019-03-17T09:04:07.470Z,11.00
2019-03-17T09:06:38.293Z,11.20
2019-03-17T09:09:09.304Z,11.30
2019-03-17T09:11:39.759Z,11.50
2019-03-17T09:14:10.237Z,11.70
2019-03-17T09:16:40.890Z,11.70
2019-03-17T09:19:11.345Z,11.60
2019-03-17T09:21:41.823Z,11.50
2019-03-17T09:24:17.550Z,11.50
2019-03-17T09:26:44.883Z,11.60
2019-03-17T09:29:15.345Z,11.80
2019-03-17T09:31:45.997Z,12.10
2019-03-17T09:34:16.522Z,12.50
2019-03-17T09:36:46.950Z,12.80
2019-03-17T09:39:17.463Z,13.10
2019-03-17T09:41:47.945Z,13.30
2019-03-17T09:44:18.451Z,13.50
2019-03-17T09:46:49.831Z,13.50
2019-03-17T09:49:21.956Z,13.60
2019-03-17T09:51:52.375Z,13.50
2019-03-17T09:54:22.843Z,13.60
2019-03-17T09:56:53.299Z,13.60
2019-03-17T09:59:23.805Z,13.90
2019-03-17T10:01:54.267Z,13.50
2019-03-17T10:04:24.743Z,13.60
2019-03-17T10:06:55.171Z,13.60
2019-03-17T10:09:25.666Z,13.40
2019-03-17T10:11:56.185Z,13.30
2019-03-17T10:14:26.663Z,13.30
2019-03-17T10:16:57.212Z,13.10
2019-03-17T10:19:27.677Z,12.90
2019-03-17T10:21:58.188Z,12.90
2019-03-17T10:24:28.605Z,12.90
2019-03-17T10:26:59.145Z,13.00
2019-03-17T10:29:29.714Z,13.40
2019-03-17T10:32:00.435Z,13.40
2019-03-17T10:34:30.963Z,13.40
2019-03-17T10:37:01.391Z,14.00
2019-03-17T10:39:31.803Z,15.00
2019-03-17T10:42:02.265Z,15.40
2019-03-17T10:44:32.657Z,15.40
2019-03-17T10:47:03.032Z,15.10
2019-03-17T10:49:33.460Z,14.60
2019-03-17T10:52:05.221Z,14.30
2019-03-17T10:54:35.591Z,13.70
2019-03-17T10:57:06.085Z,13.40
2019-03-17T10:59:36.479Z,13.50
2019-03-17T11:02:06.919Z,13.80
2019-03-17T11:04:37.396Z,14.00
2019-03-17T11:07:07.823Z,14.60
2019-03-17T11:09:38.280Z,15.60
2019-03-17T11:12:08.767Z,16.50
2019-03-17T11:14:40.593Z,17.10
2019-03-17T11:17:11.454Z,17.50
2019-03-17T11:19:41.886Z,17.70
2019-03-17T11:22:12.309Z,18.30
2019-03-17T11:24:42.713Z,18.50
2019-03-17T11:27:13.339Z,18.80
2019-03-17T11:29:43.824Z,18.90
2019-03-17T11:32:14.583Z,18.80
2019-03-17T11:34:45.126Z,18.40
2019-03-17T11:37:15.620Z,18.50
2019-03-17T11:39:46.130Z,18.90
2019-03-17T11:42:16.638Z,19.30
2019-03-17T11:44:47.111Z,19.90
2019-03-17T11:47:17.462Z,19.80
2019-03-17T11:49:47.935Z,19.50
2019-03-17T11:52:18.505Z,19.50
2019-03-17T11:54:48.913Z,19.50
2019-03-17T11:57:19.711Z,19.20
2019-03-17T11:59:50.243Z,18.80
2019-03-17T12:02:26.523Z,18.30
2019-03-17T12:04:52.801Z,18.60
2019-03-17T12:07:23.391Z,18.80
2019-03-17T12:09:53.859Z,19.10
2019-03-17T12:12:24.291Z,19.40
2019-03-17T12:14:54.773Z,19.90
2019-03-17T12:17:25.369Z,19.80
2019-03-17T12:19:55.861Z,19.90
2019-03-17T12:22:26.298Z,19.70
2019-03-17T12:24:56.877Z,18.90
2019-03-17T12:27:27.395Z,18.40
2019-03-17T12:29:58.220Z,18.50
2019-03-17T12:32:29.060Z,19.10
2019-03-17T12:34:59.625Z,19.30
2019-03-17T12:37:30.061Z,19.60
2019-03-17T12:40:03.005Z,19.70
2019-03-17T12:42:32.755Z,19.60
2019-03-17T12:45:03.398Z,19.60
2019-03-17T12:47:33.790Z,19.80
2019-03-17T12:50:04.224Z,19.70
2019-03-17T12:52:35.373Z,19.80
2019-03-17T12:55:06.442Z,19.10
2019-03-17T12:57:36.840Z,18.90
2019-03-17T13:00:10.014Z,18.70
2019-03-17T13:02:40.661Z,18.30
2019-03-17T13:05:11.869Z,17.80
2019-03-17T13:07:42.335Z,17.60
2019-03-17T13:10:15.836Z,17.50
2019-03-17T13:12:46.386Z,17.30
2019-03-17T13:15:16.969Z,17.20
2019-03-17T13:17:47.446Z,17.00
2019-03-17T13:20:18.015Z,16.90
2019-03-17T13:22:48.461Z,16.90
2019-03-17T13:25:19.199Z,16.80
2019-03-17T13:27:50.800Z,16.90
2019-03-17T13:30:21.430Z,16.90
2019-03-17T13:32:51.919Z,16.90
2019-03-17T13:35:22.556Z,16.80
2019-03-17T13:37:53.556Z,16.80
2019-03-17T13:40:29.242Z,16.80
2019-03-17T13:42:56.122Z,16.80
2019-03-17T13:45:26.548Z,16.80
2019-03-17T13:47:57.092Z,16.80
2019-03-17T13:50:27.491Z,16.90
2019-03-17T13:52:58.236Z,16.90
2019-03-17T13:55:28.675Z,17.00
2019-03-17T13:57:59.770Z,17.00
2019-03-17T14:00:30.662Z,17.10
2019-03-17T14:03:01.182Z,17.10
2019-03-17T14:05:33.154Z,17.10
2019-03-17T14:08:04.978Z,17.10
2019-03-17T14:10:40.844Z,17.10
2019-03-17T14:13:07.982Z,17.20
2019-03-17T14:15:38.706Z,17.20
2019-03-17T14:18:09.900Z,17.20
2019-03-17T14:20:40.550Z,17.30
2019-03-17T14:23:11.628Z,17.30
2019-03-17T14:25:43.321Z,17.30
2019-03-17T14:28:13.814Z,17.30
2019-03-17T14:30:44.580Z,17.30
2019-03-17T14:33:15.182Z,17.30
2019-03-17T14:35:46.048Z,17.30
2019-03-17T14:38:16.688Z,17.20
2019-03-17T14:40:54.695Z,17.10
2019-03-17T14:43:21.994Z,17.10
2019-03-17T14:45:52.417Z,17.10
2019-03-17T14:48:22.892Z,17.00
2019-03-17T14:50:53.315Z,17.00
2019-03-17T14:53:24.937Z,17.00
2019-03-17T14:55:56.628Z,17.00
2019-03-17T14:58:27.485Z,17.10
2019-03-17T15:00:58.149Z,17.10
2019-03-17T15:03:28.854Z,17.10
2019-03-17T15:05:59.763Z,17.20
2019-03-17T15:08:30.154Z,17.20
2019-03-17T15:11:05.702Z,17.10
2019-03-17T15:13:32.870Z,17.10
2019-03-17T15:16:03.399Z,17.10
2019-03-17T15:18:34.444Z,17.10
2019-03-17T15:21:04.833Z,17.00
2019-03-17T15:23:35.480Z,17.10
2019-03-17T15:26:06.111Z,17.10
2019-03-17T15:28:36.664Z,17.10
2019-03-17T15:31:12.118Z,17.10
2019-03-17T15:33:40.133Z,17.10
2019-03-17T15:36:10.880Z,17.10
2019-03-17T15:38:41.642Z,17.10
2019-03-17T15:41:18.438Z,17.00
2019-03-17T15:43:44.443Z,17.00
2019-03-17T15:46:15.052Z,17.00
2019-03-17T15:48:45.770Z,17.00
2019-03-17T15:51:20.631Z,17.00
2019-03-17T15:53:48.762Z,16.90
2019-03-17T15:56:19.176Z,16.90
2019-03-17T15:58:49.874Z,16.90
2019-03-17T16:01:20.592Z,16.80
2019-03-17T16:03:51.098Z,16.80
2019-03-17T16:06:22.255Z,16.70
2019-03-17T16:08:53.369Z,16.70
2019-03-17T16:11:30.778Z,16.70
2019-03-17T16:13:56.376Z,16.70
2019-03-17T16:16:27.182Z,16.60
2019-03-17T16:18:57.903Z,16.60
2019-03-17T16:21:28.564Z,16.60
2019-03-17T16:23:59.063Z,16.50
2019-03-17T16:26:29.616Z,16.50
2019-03-17T16:29:00.498Z,16.50
2019-03-17T16:31:31.086Z,16.40
2019-03-17T16:34:01.771Z,16.40
2019-03-17T16:36:32.262Z,16.30
2019-03-17T16:39:03.396Z,16.30
2019-03-17T16:41:42.972Z,16.20
2019-03-17T16:44:06.100Z,16.20
2019-03-17T16:46:36.452Z,16.20
2019-03-17T16:49:07.262Z,16.10
2019-03-17T16:51:38.085Z,16.10
2019-03-17T16:54:08.747Z,16.00
2019-03-17T16:56:39.234Z,16.00
2019-03-17T16:59:09.770Z,15.90
2019-03-17T17:01:40.309Z,15.90
2019-03-17T17:04:10.848Z,15.80
2019-03-17T17:06:42.515Z,15.80
2019-03-17T17:09:13.040Z,15.70
2019-03-17T17:11:55.311Z,15.70
2019-03-17T17:14:15.706Z,15.70
2019-03-17T17:16:46.299Z,15.60
2019-03-17T17:19:18.044Z,15.60
2019-03-17T17:21:48.734Z,15.60
2019-03-17T17:24:19.307Z,15.60
2019-03-17T17:26:50.960Z,15.50
2019-03-17T17:29:21.972Z,15.50
2019-03-17T17:31:52.430Z,15.40
2019-03-17T17:34:24.604Z,15.40
2019-03-17T17:36:55.256Z,15.30
2019-03-17T17:39:25.922Z,15.30
2019-03-17T17:42:07.948Z,15.20
2019-03-17T17:44:28.728Z,15.20
2019-03-17T17:46:59.125Z,15.20
2019-03-17T17:49:30.866Z,15.20
2019-03-17T17:52:03.507Z,15.20
2019-03-17T17:54:33.666Z,15.20
2019-03-17T17:57:04.233Z,15.20
2019-03-17T17:59:34.618Z,15.20
2019-03-17T18:02:05.294Z,15.20
2019-03-17T18:04:35.925Z,15.20
2019-03-17T18:07:06.901Z,15.10
2019-03-17T18:09:37.598Z,15.10
2019-03-17T18:12:20.172Z,15.10
2019-03-17T18:14:42.061Z,15.00
2019-03-17T18:17:12.900Z,15.00
2019-03-17T18:19:43.364Z,15.00
2019-03-17T18:22:14.554Z,15.10
2019-03-17T18:24:45.364Z,15.10
2019-03-17T18:27:18.101Z,15.10
2019-03-17T18:29:47.945Z,14.90
2019-03-17T18:32:18.630Z,14.80
2019-03-17T18:34:50.652Z,14.60
2019-03-17T18:37:21.513Z,14.50
2019-03-17T18:39:52.054Z,14.50
2019-03-17T18:42:32.511Z,14.40
2019-03-17T18:44:54.789Z,14.30
2019-03-17T18:47:25.251Z,14.20
2019-03-17T18:49:55.849Z,14.10
2019-03-17T18:52:26.467Z,14.10
2019-03-17T18:54:57.112Z,14.00
2019-03-17T18:57:27.956Z,14.00
2019-03-17T18:59:58.943Z,14.00
2019-03-17T19:02:29.598Z,14.10
2019-03-17T19:05:01.032Z,14.10
2019-03-17T19:07:31.646Z,14.10
2019-03-17T19:10:02.283Z,14.10
2019-03-17T19:12:44.694Z,14.20
2019-03-17T19:15:05.456Z,14.20
2019-03-17T19:17:36.063Z,14.20
2019-03-17T19:20:07.618Z,14.20
2019-03-17T19:22:38.489Z,14.20
2019-03-17T19:25:10.743Z,14.10
2019-03-17T19:27:41.313Z,14.10
2019-03-17T19:30:14.528Z,14.00
2019-03-17T19:32:45.055Z,14.00
2019-03-17T19:35:16.175Z,13.90
2019-03-17T19:37:46.953Z,13.70
2019-03-17T19:40:17.402Z,13.70
2019-03-17T19:42:57.978Z,13.60
2019-03-17T19:45:20.252Z,13.40
2019-03-17T19:47:50.690Z,13.30
2019-03-17T19:50:21.258Z,13.20
2019-03-17T19:52:51.714Z,13.10
2019-03-17T19:55:22.240Z,13.00
2019-03-17T19:57:53.132Z,12.90
2019-03-17T20:00:23.559Z,12.80
2019-03-17T20:02:53.953Z,12.70
2019-03-17T20:05:24.375Z,12.70
2019-03-17T20:07:54.823Z,12.80
2019-03-17T20:10:25.857Z,12.70
2019-03-17T20:12:56.875Z,12.70
2019-03-17T20:15:27.421Z,12.70
2019-03-17T20:17:58.035Z,12.70
2019-03-17T20:20:28.428Z,12.70
2019-03-17T20:22:58.808Z,12.70
2019-03-17T20:25:29.211Z,12.70
2019-03-17T20:28:00.246Z,12.70
2019-03-17T20:30:30.652Z,12.70
2019-03-17T20:33:03.759Z,12.70
2019-03-17T20:35:34.290Z,12.70
2019-03-17T20:38:05.128Z,12.70
2019-03-17T20:40:35.548Z,12.80
2019-03-17T20:43:18.456Z,12.80
2019-03-17T20:45:38.114Z,12.80
2019-03-17T20:48:08.730Z,12.80
2019-03-17T20:50:39.493Z,12.80
2019-03-17T20:53:09.947Z,12.80
2019-03-17T20:55:40.411Z,12.80
2019-03-17T20:58:11.025Z,12.80
2019-03-17T21:00:41.436Z,12.80
2019-03-17T21:03:11.901Z,12.80
2019-03-17T21:05:42.287Z,12.80
2019-03-17T21:08:13.082Z,12.80
2019-03-17T21:10:43.479Z,12.80
2019-03-17T21:13:14.088Z,12.80
2019-03-17T21:15:44.730Z,12.80
2019-03-17T21:18:15.394Z,12.80
2019-03-17T21:20:46.795Z,12.70
2019-03-17T21:23:17.095Z,12.70
2019-03-17T21:25:48.317Z,12.60
2019-03-17T21:28:19.299Z,12.70
2019-03-17T21:30:49.860Z,12.60
2019-03-17T21:33:21.636Z,12.50
2019-03-17T21:35:52.102Z,12.50
2019-03-17T21:38:22.566Z,12.50
2019-03-17T21:41:06.219Z,12.40
2019-03-17T21:43:26.428Z,12.40
2019-03-17T21:45:57.208Z,12.30
2019-03-17T21:48:27.651Z,12.40
2019-03-17T21:50:58.552Z,12.40
2019-03-17T21:53:28.973Z,12.50
2019-03-17T21:55:59.597Z,12.50
2019-03-17T21:58:30.093Z,12.50
2019-03-17T22:01:00.735Z,12.60
2019-03-17T22:03:31.317Z,12.60
2019-03-17T22:06:02.054Z,12.60
2019-03-17T22:08:32.661Z,12.70
2019-03-17T22:11:02.987Z,12.70
2019-03-17T22:13:33.346Z,12.70
2019-03-17T22:16:03.976Z,12.60
2019-03-17T22:18:34.422Z,12.40
2019-03-17T22:21:05.993Z,12.10
2019-03-17T22:23:36.657Z,11.90
2019-03-17T22:26:07.320Z,11.70
2019-03-17T22:28:38.999Z,11.40
2019-03-17T22:31:09.652Z,11.20
2019-03-17T22:33:40.101Z,11.00
2019-03-17T22:36:10.823Z,10.80
2019-03-17T22:38:41.308Z,10.60
2019-03-17T22:41:11.929Z,10.40
2019-03-17T22:43:42.482Z,10.20
2019-03-17T22:46:13.014Z,10.10
2019-03-17T22:48:43.427Z,10.00
2019-03-17T22:51:13.816Z,9.80
2019-03-17T22:53:44.237Z,9.70
2019-03-17T22:56:14.641Z,9.60
2019-03-17T22:58:45.331Z,9.50
2019-03-17T23:01:16.191Z,9.40
2019-03-17T23:03:47.585Z,9.30
2019-03-17T23:06:21.834Z,9.20
2019-03-17T23:08:53.103Z,9.20
2019-03-17T23:11:24.018Z,9.10
2019-03-17T23:13:55.183Z,9.10
2019-03-17T23:16:26.177Z,9.00
2019-03-17T23:18:57.199Z,9.00
2019-03-17T23:21:28.143Z,8.90
2019-03-17T23:24:01.516Z,8.90
2019-03-17T23:26:32.421Z,8.90
2019-03-17T23:29:03.479Z,8.90
2019-03-17T23:31:34.809Z,8.80
2019-03-17T23:34:05.801Z,8.80
2019-03-17T23:36:36.705Z,8.80
2019-03-17T23:39:08.379Z,8.80
2019-03-17T23:41:41.931Z,8.70
2019-03-17T23:44:13.275Z,8.70
2019-03-17T23:46:44.258Z,8.70
2019-03-17T23:49:15.350Z,8.70
2019-03-17T23:51:46.664Z,8.60
2019-03-17T23:54:17.805Z,8.60
2019-03-17T23:56:48.889Z,8.60
2019-03-17T23:59:20.715Z,8.60
